Time;durP1;ratioP1;P1;durP2;ratioP2;P2;SDS_P1;SDS_P2;PMS_P1;PMS_P2;Temp;Humidity;BMP_temperature;BMP_pressure;BME280_temperature;BME280_humidity;BME280_pressure;Samples;Min_cycle;Max_cycle;Signal;HPM_P1;HPM_P2
2021/01/20 00:01:10;;;;;;;42.88;23.83;;;;;;;-2.66;66.69;95227.19;4135477;28;20081;-80
2021/01/20 00:03:12;;;;;;;41.08;23.60;;;;;;;-2.64;66.17;95228.78;4135501;28;20058;-80
2021/01/20 00:05:14;;;;;;;40.47;21.83;;;;;;;-2.76;67.09;95230.13;4135538;28;20058;-80
2021/01/20 00:07:15;;;;;;;43.50;23.20;;;;;;;-2.70;66.68;95227.28;4134217;28;20054;-81
2021/01/20 00:09:17;;;;;;;38.13;22.40;;;;;;;-2.66;66.70;95230.56;4136269;28;20053;-82
2021/01/20 00:11:18;;;;;;;36.17;21.98;;;;;;;-2.58;66.46;95245.63;4134991;28;20046;-80
2021/01/20 00:13:19;;;;;;;40.63;24.35;;;;;;;-2.53;65.62;95241.13;4134841;28;20046;-80
2021/01/20 00:15:23;;;;;;;46.05;23.77;;;;;;;-2.51;66.08;95237.59;4135002;28;20125;-81
2021/01/20 00:17:24;;;;;;;36.47;22.52;;;;;;;-2.45;65.88;95231.38;4134696;28;20599;-79
2021/01/20 00:19:25;;;;;;;39.92;22.50;;;;;;;-2.48;66.15;95234.88;4134997;28;20046;-80
2021/01/20 00:21:27;;;;;;;42.28;23.20;;;;;;;-2.50;65.97;95244.38;4131615;28;20110;-81
2021/01/20 00:23:28;;;;;;;39.50;22.23;;;;;;;-2.65;66.75;95249.34;4132857;28;20091;-80
2021/01/20 00:25:29;;;;;;;40.60;22.92;;;;;;;-2.75;66.73;95223.28;4135416;28;20108;-79
2021/01/20 00:27:30;;;;;;;45.00;23.10;;;;;;;-2.73;66.91;95242.84;4119205;28;20413;-80
2021/01/20 00:29:32;;;;;;;38.97;21.95;;;;;;;-2.89;67.43;95252.88;4133304;28;20057;-70
2021/01/20 00:31:33;;;;;;;43.00;23.30;;;;;;;-2.96;67.93;95238.66;4129243;28;20054;-70
2021/01/20 00:33:35;;;;;;;42.28;23.77;;;;;;;-2.90;67.27;95242.72;4130247;28;20499;-70
2021/01/20 00:35:36;;;;;;;39.78;23.33;;;;;;;-2.84;67.18;95254.44;4128980;28;20507;-69
2021/01/20 00:37:38;;;;;;;46.22;23.90;;;;;;;-2.81;66.91;95246.63;4128697;28;20543;-70
2021/01/20 00:39:40;;;;;;;38.30;22.77;;;;;;;-2.73;66.97;95244.53;4126887;28;20129;-69
2021/01/20 00:41:41;;;;;;;36.15;21.73;;;;;;;-2.69;66.72;95246.06;4128781;28;20050;-70
2021/01/20 00:43:42;;;;;;;40.83;22.27;;;;;;;-2.65;66.47;95250.19;4129689;28;20212;-70
2021/01/20 00:45:43;;;;;;;41.60;23.00;;;;;;;-2.69;65.99;95240.94;4127855;28;20051;-70
2021/01/20 00:47:45;;;;;;;41.80;22.83;;;;;;;-2.65;66.35;95239.91;4130404;28;20410;-69
2021/01/20 00:49:46;;;;;;;42.75;24.00;;;;;;;-2.69;65.75;95235.81;4129319;28;20523;-70
2021/01/20 00:51:48;;;;;;;40.90;22.05;;;;;;;-2.77;66.25;95238.72;4114608;28;20487;-69
2021/01/20 00:53:49;;;;;;;39.13;22.65;;;;;;;-2.82;66.36;95248.31;4129855;28;20060;-69
2021/01/20 00:55:50;;;;;;;40.25;22.13;;;;;;;-2.78;66.03;95247.31;4128466;28;20070;-69
2021/01/20 00:57:51;;;;;;;39.72;22.42;;;;;;;-2.76;66.01;95240.38;4122137;28;20471;-71
2021/01/20 00:59:53;;;;;;;38.08;21.02;;;;;;;-2.69;65.57;95246.06;4122085;28;20138;-70
2021/01/20 01:01:57;;;;;;;38.15;20.35;;;;;;;-2.66;66.21;95250.25;4129573;28;20057;-69
2021/01/20 01:04:00;;;;;;;35.88;20.05;;;;;;;-2.65;65.12;95252.75;4113019;28;20049;-70
2021/01/20 01:06:01;;;;;;;39.20;20.92;;;;;;;-2.63;65.63;95243.25;4116775;28;20050;-69
2021/01/20 01:08:03;;;;;;;38.97;22.52;;;;;;;-2.64;65.58;95244.16;4129216;28;20050;-71
2021/01/20 01:10:05;;;;;;;36.72;20.60;;;;;;;-2.63;65.45;95248.38;4128735;28;20069;-70
2021/01/20 01:12:06;;;;;;;39.63;21.05;;;;;;;-2.61;65.37;95248.31;4127961;28;20050;-71
2021/01/20 01:14:07;;;;;;;34.13;20.00;;;;;;;-2.61;65.45;95246.59;4121357;28;20054;-69
2021/01/20 01:16:09;;;;;;;36.78;20.98;;;;;;;-2.65;65.59;95245.03;4113125;28;20046;-69
2021/01/20 01:18:10;;;;;;;34.70;20.40;;;;;;;-2.66;65.11;95248.53;4124906;28;20050;-70
2021/01/20 01:20:12;;;;;;;30.85;18.17;;;;;;;-2.71;65.29;95242.75;4127076;28;20054;-70
2021/01/20 01:22:13;;;;;;;37.90;18.83;;;;;;;-2.74;64.97;95248.84;4114090;28;20046;-70
2021/01/20 01:24:14;;;;;;;33.45;19.08;;;;;;;-2.73;65.14;95254.78;4117023;28;20046;-70
2021/01/20 01:26:15;;;;;;;34.88;18.48;;;;;;;-2.75;65.44;95242.06;4128354;28;20058;-71
2021/01/20 01:28:17;;;;;;;34.33;18.80;;;;;;;-2.76;65.62;95234.44;4127541;28;20058;-71
2021/01/20 01:30:18;;;;;;;34.20;18.33;;;;;;;-2.75;65.53;95238.66;4128142;28;20062;-71
2021/01/20 01:32:19;;;;;;;31.38;18.13;;;;;;;-2.78;65.30;95226.78;4117619;28;20043;-71
2021/01/20 01:34:21;;;;;;;33.90;18.75;;;;;;;-2.80;65.43;95230.31;4129650;28;20081;-69
2021/01/20 01:36:22;;;;;;;37.10;19.23;;;;;;;-2.81;65.43;95208.16;4128650;28;20054;-70
2021/01/20 01:38:23;;;;;;;36.75;19.30;;;;;;;-2.78;65.02;95211.41;4129040;28;20143;-70
2021/01/20 01:40:25;;;;;;;34.53;19.15;;;;;;;-2.75;65.29;95218.16;4129391;28;20085;-70
2021/01/20 01:42:27;;;;;;;34.10;19.45;;;;;;;-2.73;65.48;95206.06;4125908;28;20058;-70
2021/01/20 01:44:29;;;;;;;34.15;18.27;;;;;;;-2.78;65.52;95208.00;4115622;28;20057;-70
2021/01/20 01:46:30;;;;;;;31.55;19.02;;;;;;;-2.81;65.43;95218.41;4127708;28;20050;-70
2021/01/20 01:48:31;;;;;;;33.80;18.52;;;;;;;-2.91;65.31;95218.78;4126429;28;20531;-69
2021/01/20 01:50:32;;;;;;;32.67;18.52;;;;;;;-2.93;65.99;95224.88;4116396;28;20049;-70
2021/01/20 01:52:35;;;;;;;36.75;18.20;;;;;;;-2.90;65.10;95220.47;4129805;28;20084;-70
2021/01/20 01:54:36;;;;;;;33.03;17.52;;;;;;;-2.84;65.19;95226.22;4127164;28;20058;-69
2021/01/20 01:56:37;;;;;;;30.65;18.95;;;;;;;-2.84;65.50;95226.22;4122945;28;20058;-71
2021/01/20 01:58:38;;;;;;;30.50;18.05;;;;;;;-2.78;65.10;95225.97;4127429;28;20478;-71
2021/01/20 02:00:40;;;;;;;32.88;17.83;;;;;;;-2.79;65.39;95229.44;4138045;28;20058;-69
2021/01/20 02:02:42;;;;;;;33.60;18.27;;;;;;;-2.79;64.69;95232.84;4122997;28;20054;-70
2021/01/20 02:04:43;;;;;;;30.40;16.85;;;;;;;-2.81;64.53;95233.81;4120414;28;20082;-71
2021/01/20 02:06:45;;;;;;;29.35;17.02;;;;;;;-2.92;64.27;95229.94;4126821;28;20480;-69
2021/01/20 02:08:47;;;;;;;30.27;17.00;;;;;;;-2.93;65.04;95223.16;4130836;28;20046;-81
2021/01/20 02:10:51;;;;;;;30.95;16.65;;;;;;;-2.92;65.08;95218.88;4118073;28;20050;-78
2021/01/20 02:13:10;;;;;;;29.10;17.30;;;;;;;-2.92;64.83;95229.13;4122005;28;20055;-80
2021/01/20 02:15:17;;;;;;;29.13;16.23;;;;;;;-2.92;64.76;95229.13;4137607;28;20069;-78
2021/01/20 02:17:21;;;;;;;26.10;15.23;;;;;;;-2.99;65.07;95220.00;4124620;28;20045;-80
2021/01/20 02:19:37;;;;;;;28.83;16.27;;;;;;;-3.11;65.60;95224.75;4141625;28;20420;-80
2021/01/20 02:21:48;;;;;;;27.80;16.00;;;;;;;-3.08;65.75;95218.66;4132090;28;20062;-79
2021/01/20 02:23:50;;;;;;;27.80;16.23;;;;;;;-3.09;65.99;95222.13;4117065;28;20055;-78
2021/01/20 02:26:22;;;;;;;24.77;15.85;;;;;;;-3.16;66.59;95221.56;4134108;28;20137;-78
2021/01/20 02:28:35;;;;;;;29.35;14.95;;;;;;;-3.11;66.06;95219.63;4136395;28;20039;-80
2021/01/20 02:30:37;;;;;;;28.75;15.15;;;;;;;-3.11;65.35;95221.38;4123725;28;20042;-80
2021/01/20 02:32:40;;;;;;;27.55;14.93;;;;;;;-3.08;65.65;95221.22;4133568;28;20089;-81
2021/01/20 02:34:42;;;;;;;28.13;16.60;;;;;;;-3.07;65.58;95214.41;4135519;28;20050;-81
2021/01/20 02:36:44;;;;;;;28.13;15.88;;;;;;;-3.18;66.28;95212.28;4133210;28;20054;-79
2021/01/20 02:38:47;;;;;;;31.73;15.85;;;;;;;-3.14;66.03;95218.91;4132366;28;20446;-79
2021/01/20 02:40:48;;;;;;;26.33;15.70;;;;;;;-3.13;66.23;95220.59;4116204;28;20058;-80
2021/01/20 02:42:50;;;;;;;26.00;14.23;;;;;;;-3.12;65.09;95215.41;4119350;28;20053;-81
2021/01/20 02:44:51;;;;;;;26.15;15.82;;;;;;;-3.12;65.57;95212.84;4132720;28;20053;-79
2021/01/20 02:46:52;;;;;;;26.88;15.43;;;;;;;-3.13;65.79;95225.72;4132210;28;20061;-80
2021/01/20 02:48:55;;;;;;;27.52;15.48;;;;;;;-3.10;65.88;95225.59;4133596;28;20078;-79
2021/01/20 02:50:59;;;;;;;25.95;15.00;;;;;;;-3.05;65.25;95221.13;4130452;28;20054;-78
2021/01/20 02:53:09;;;;;;;30.25;16.05;;;;;;;-3.03;65.50;95226.16;4141508;28;20054;-81
2021/01/20 02:55:12;;;;;;;23.23;14.13;;;;;;;-3.03;64.92;95224.44;4129015;28;20061;-81
2021/01/20 02:57:14;;;;;;;28.70;14.95;;;;;;;-3.07;65.00;95219.53;4132460;28;20133;-78
2021/01/20 02:59:17;;;;;;;28.90;15.85;;;;;;;-3.12;64.98;95219.69;4127614;28;20517;-79
2021/01/20 03:01:19;;;;;;;28.92;16.10;;;;;;;-3.14;64.95;95224.03;4132222;28;20054;-78
2021/01/20 03:03:22;;;;;;;23.73;15.27;;;;;;;-3.14;65.42;95216.34;4132829;28;20129;-78
2021/01/20 03:05:23;;;;;;;27.98;16.20;;;;;;;-3.10;65.20;95226.44;4132379;28;20046;-80
2021/01/20 03:07:26;;;;;;;26.90;15.43;;;;;;;-3.11;64.59;95224.75;4124629;28;20053;-81
2021/01/20 03:09:27;;;;;;;25.15;15.23;;;;;;;-3.08;64.82;95213.53;4129216;28;20069;-80
2021/01/20 03:11:29;;;;;;;28.70;16.23;;;;;;;-3.07;64.82;95204.16;4133012;28;20058;-81
2021/01/20 03:13:33;;;;;;;26.58;16.35;;;;;;;-3.07;65.55;95217.78;4138613;28;20109;-80
2021/01/20 03:15:40;;;;;;;28.73;16.58;;;;;;;-3.11;65.71;95221.38;4134614;28;20050;-79
2021/01/20 03:17:41;;;;;;;26.08;15.95;;;;;;;-3.10;64.92;95213.63;4130711;28;20053;-70
2021/01/20 03:19:42;;;;;;;28.35;15.23;;;;;;;-3.09;65.32;95197.34;4131496;28;20443;-69
2021/01/20 03:21:44;;;;;;;28.00;15.57;;;;;;;-3.18;65.42;95202.03;4130412;28;20058;-69
2021/01/20 03:23:45;;;;;;;28.67;16.10;;;;;;;-3.18;65.27;95212.28;4131503;28;20061;-70
2021/01/20 03:25:46;;;;;;;28.42;15.50;;;;;;;-3.17;65.13;95208.81;4130980;28;20137;-68
2021/01/20 03:27:47;;;;;;;27.42;14.70;;;;;;;-3.19;65.06;95214.00;4131820;28;20077;-68
2021/01/20 03:29:48;;;;;;;25.20;15.93;;;;;;;-3.33;65.39;95209.44;4128701;28;20534;-69
2021/01/20 03:31:49;;;;;;;24.30;14.77;;;;;;;-3.29;65.87;95217.84;4129473;28;20062;-70
2021/01/20 03:33:51;;;;;;;27.30;16.00;;;;;;;-3.24;65.47;95218.47;4115674;28;20050;-70
2021/01/20 03:35:52;;;;;;;27.13;14.90;;;;;;;-3.30;65.14;95217.00;4125502;28;20051;-69
2021/01/20 03:37:54;;;;;;;24.90;15.35;;;;;;;-3.46;65.74;95205.72;4116734;28;20043;-71
2021/01/20 03:39:55;;;;;;;27.25;15.13;;;;;;;-3.57;66.00;95224.09;4114626;28;20757;-70
2021/01/20 03:41:56;;;;;;;26.10;15.10;;;;;;;-3.69;67.08;95223.72;4115228;28;20061;-70
2021/01/20 03:43:57;;;;;;;27.27;14.48;;;;;;;-3.62;67.12;95218.28;4127601;28;20058;-70
2021/01/20 03:45:59;;;;;;;26.65;14.32;;;;;;;-3.51;66.60;95230.66;4115634;28;20054;-70
2021/01/20 03:48:00;;;;;;;24.88;13.77;;;;;;;-3.43;65.97;95222.69;4136704;28;20049;-70
2021/01/20 03:50:02;;;;;;;23.48;14.23;;;;;;;-3.51;65.75;95212.75;4146632;28;20053;-70
2021/01/20 03:52:04;;;;;;;24.55;14.85;;;;;;;-3.51;66.01;95226.41;4134249;28;20503;-70
2021/01/20 03:54:05;;;;;;;25.00;13.70;;;;;;;-3.51;65.70;95223.00;4117619;28;20469;-69
2021/01/20 03:56:06;;;;;;;23.42;14.55;;;;;;;-3.44;66.06;95209.06;4130785;28;20057;-79
2021/01/20 03:58:08;;;;;;;28.42;14.23;;;;;;;-3.41;65.84;95215.78;4129498;28;20042;-70
2021/01/20 04:00:09;;;;;;;23.27;13.13;;;;;;;-3.36;65.61;95206.16;4112273;28;20144;-70
2021/01/20 04:02:11;;;;;;;25.33;14.45;;;;;;;-3.40;65.86;95210.59;4122274;28;20046;-71
2021/01/20 04:04:12;;;;;;;25.15;14.73;;;;;;;-3.36;65.80;95213.84;4131524;28;20136;-70
2021/01/20 04:06:13;;;;;;;24.80;13.85;;;;;;;-3.56;65.52;95224.91;4114924;28;20492;-70
2021/01/20 04:08:14;;;;;;;26.67;14.70;;;;;;;-3.54;66.28;95220.56;4125434;28;20069;-69
2021/01/20 04:10:16;;;;;;;26.63;14.35;;;;;;;-3.51;66.17;95215.31;4120541;28;20132;-70
2021/01/20 04:12:17;;;;;;;21.45;13.55;;;;;;;-3.48;65.98;95217.75;4129880;28;20050;-70
2021/01/20 04:14:18;;;;;;;21.05;12.20;;;;;;;-3.50;65.90;95212.69;4129091;28;20096;-71
2021/01/20 04:16:20;;;;;;;23.80;13.45;;;;;;;-3.45;65.82;95214.22;4128005;28;20415;-69
2021/01/20 04:18:21;;;;;;;20.80;12.68;;;;;;;-3.39;65.68;95216.56;4130611;28;20074;-70
2021/01/20 04:20:22;;;;;;;21.98;13.18;;;;;;;-3.37;65.95;95227.56;4137426;28;20103;-69
2021/01/20 04:22:24;;;;;;;24.75;13.25;;;;;;;-3.36;65.73;95218.97;4133302;28;20097;-70
2021/01/20 04:24:25;;;;;;;23.70;13.90;;;;;;;-3.44;65.45;95239.78;4121952;28;20046;-70
2021/01/20 04:26:26;;;;;;;23.80;13.77;;;;;;;-3.60;66.17;95233.59;4113612;28;20050;-70
2021/01/20 04:28:27;;;;;;;23.52;13.52;;;;;;;-3.55;66.00;95229.97;4132597;28;20045;-70
2021/01/20 04:30:28;;;;;;;25.38;13.35;;;;;;;-3.53;65.90;95227.34;4138579;28;20050;-70
2021/01/20 04:32:30;;;;;;;21.98;12.20;;;;;;;-3.71;66.67;95239.97;4124939;28;20051;-69
2021/01/20 04:34:31;;;;;;;111.10;41.10;;;;;;;-3.89;67.18;95253.50;4120160;28;20100;-70
2021/01/20 04:36:33;;;;;;;76.20;29.20;;;;;;;-3.78;66.59;95251.34;4124115;28;20059;-69
2021/01/20 04:38:35;;;;;;;35.50;16.83;;;;;;;-3.66;66.68;95249.22;4126735;28;20186;-69
2021/01/20 04:40:36;;;;;;;27.48;14.20;;;;;;;-3.71;66.42;95252.78;4128799;28;20574;-70
2021/01/20 04:42:37;;;;;;;21.23;12.15;;;;;;;-3.62;66.17;95256.69;4129950;28;20125;-69
2021/01/20 04:44:38;;;;;;;25.05;13.00;;;;;;;-3.54;65.87;95251.28;4128910;28;20053;-69
2021/01/20 04:46:42;;;;;;;25.15;13.20;;;;;;;-3.38;66.27;95254.91;4129089;28;20050;-70
2021/01/20 04:48:45;;;;;;;19.92;12.05;;;;;;;-3.33;65.16;95263.25;4117435;28;20097;-69
2021/01/20 04:50:47;;;;;;;23.42;12.07;;;;;;;-3.39;66.04;95260.94;4115603;28;20193;-69
2021/01/20 04:52:49;;;;;;;22.90;12.52;;;;;;;-3.37;65.56;95259.13;4130052;28;20054;-70
2021/01/20 04:54:50;;;;;;;34.40;17.67;;;;;;;-3.36;65.89;95273.59;4128751;28;20058;-69
2021/01/20 04:56:54;;;;;;;95.60;47.00;;;;;;;-3.28;68.00;95263.06;4129762;28;20050;-70
2021/01/20 04:58:55;;;;;;;46.63;25.52;;;;;;;-3.13;66.08;95266.72;4116878;28;20856;-70
2021/01/20 05:00:58;;;;;;;45.20;22.38;;;;;;;-3.00;65.61;95267.06;4127641;28;20105;-70
2021/01/20 05:03:00;;;;;;;23.88;13.40;;;;;;;-3.15;65.16;95287.28;4129415;28;20153;-69
2021/01/20 05:05:03;;;;;;;22.88;12.88;;;;;;;-3.38;66.29;95282.25;4112455;28;20540;-69
2021/01/20 05:07:05;;;;;;;26.50;13.65;;;;;;;-3.36;65.88;95290.72;4120632;28;20067;-70
2021/01/20 05:09:06;;;;;;;25.08;12.60;;;;;;;-3.25;66.17;95303.91;4123935;28;20523;-70
2021/01/20 05:11:07;;;;;;;23.38;13.07;;;;;;;-3.43;66.05;95310.63;4128263;28;20046;-72
2021/01/20 05:13:26;;;;;;;24.38;13.65;;;;;;;-3.38;65.57;95297.63;4115418;28;20135;-68
2021/01/20 05:15:31;;;;;;;25.13;12.88;;;;;;;-3.38;66.47;95313.00;4128106;28;20046;-69
2021/01/20 05:17:34;;;;;;;22.75;12.57;;;;;;;-3.32;65.77;95293.09;4129508;28;20046;-69
2021/01/20 05:19:39;;;;;;;23.50;12.90;;;;;;;-3.27;65.32;95298.03;4118187;28;20047;-69
2021/01/20 05:21:41;;;;;;;22.80;14.15;;;;;;;-3.26;65.49;95307.38;4114167;28;20165;-70
2021/01/20 05:23:42;;;;;;;21.85;13.57;;;;;;;-3.20;65.28;95291.78;4118045;28;20570;-71
2021/01/20 05:25:45;;;;;;;23.02;12.13;;;;;;;-3.26;65.17;95278.38;4128365;28;20050;-72
2021/01/20 05:27:46;;;;;;;23.77;12.52;;;;;;;-3.21;65.55;95289.28;4130512;28;20050;-81
2021/01/20 05:30:05;;;;;;;20.90;13.13;;;;;;;-3.22;65.19;95285.06;4138991;28;20495;-83
2021/01/20 05:32:18;;;;;;;24.08;12.55;;;;;;;-3.27;65.18;95294.63;4123002;28;20047;-81
2021/01/20 05:34:39;;;;;;;23.90;13.60;;;;;;;-3.20;65.12;95291.78;4121316;28;20090;-79
2021/01/20 05:36:41;;;;;;;23.58;13.45;;;;;;;-3.14;65.34;95299.22;4130928;28;20054;-79
2021/01/20 05:38:46;;;;;;;36.03;20.35;;;;;;;-3.07;65.89;95309.22;4135722;28;20061;-83
2021/01/20 05:40:47;;;;;;;27.88;16.65;;;;;;;-2.98;65.55;95290.91;4133473;28;20129;-83
2021/01/20 05:42:53;;;;;;;24.15;14.30;;;;;;;-2.96;64.89;95302.75;4120690;28;20054;-71
2021/01/20 05:45:01;;;;;;;26.67;17.50;;;;;;;-3.04;65.24;95294.53;4127296;28;20113;-69
2021/01/20 05:47:06;;;;;;;32.45;17.90;;;;;;;-3.00;65.13;95306.34;4129106;28;20392;-70
2021/01/20 05:49:24;;;;;;;24.75;13.32;;;;;;;-3.01;64.32;95291.88;4125566;28;20113;-71
2021/01/20 05:51:26;;;;;;;20.95;13.05;;;;;;;-2.99;64.25;95287.50;4122070;28;20054;-71
2021/01/20 05:53:27;;;;;;;21.27;12.63;;;;;;;-3.03;64.72;95296.22;4127915;28;20186;-71
2021/01/20 05:55:28;;;;;;;24.75;13.82;;;;;;;-3.06;64.92;95292.94;4130452;28;20061;-70
2021/01/20 05:57:30;;;;;;;25.98;13.65;;;;;;;-3.03;64.79;95313.31;4125801;28;20054;-73
2021/01/20 05:59:31;;;;;;;26.98;14.68;;;;;;;-3.07;64.75;95310.06;4119690;28;20054;-70
2021/01/20 06:01:32;;;;;;;26.65;14.30;;;;;;;-3.02;64.51;95308.13;4129470;28;20053;-71
2021/01/20 06:03:34;;;;;;;27.33;15.35;;;;;;;-2.99;64.79;95305.47;4127638;28;20289;-70
2021/01/20 06:05:36;;;;;;;27.27;15.00;;;;;;;-2.95;64.66;95316.41;4125777;28;20787;-71
2021/01/20 06:07:37;;;;;;;28.75;15.00;;;;;;;-2.92;64.71;95299.16;4122627;28;20435;-71
2021/01/20 06:09:40;;;;;;;28.15;14.57;;;;;;;-2.86;64.23;95294.69;4123885;28;20047;-71
2021/01/20 06:11:41;;;;;;;26.02;15.43;;;;;;;-2.85;64.16;95324.56;4124413;28;20488;-70
2021/01/20 06:13:43;;;;;;;26.48;14.10;;;;;;;-2.85;64.63;95319.44;4126187;28;20108;-70
2021/01/20 06:15:44;;;;;;;25.67;14.63;;;;;;;-2.80;64.27;95315.78;4126669;28;20119;-72
2021/01/20 06:17:48;;;;;;;24.92;13.55;;;;;;;-2.77;63.88;95312.28;4129545;28;20121;-70
2021/01/20 06:19:50;;;;;;;26.63;13.27;;;;;;;-2.72;63.84;95307.78;4125156;28;20057;-72
2021/01/20 06:21:52;;;;;;;26.05;13.13;;;;;;;-2.65;63.47;95295.53;4129005;28;20385;-72
2021/01/20 06:23:59;;;;;;;24.83;13.27;;;;;;;-2.65;63.39;95309.16;4126588;28;20054;-72
2021/01/20 06:26:10;;;;;;;24.60;13.65;;;;;;;-2.73;63.76;95303.53;4112994;28;20852;-72
2021/01/20 06:28:12;;;;;;;31.02;13.85;;;;;;;-2.69;63.53;95315.31;4124295;28;20053;-71
2021/01/20 06:30:18;;;;;;;20.20;12.25;;;;;;;-2.66;63.56;95317.78;4130642;28;20058;-72
2021/01/20 06:32:22;;;;;;;22.02;12.65;;;;;;;-2.74;63.72;95319.81;4124248;28;20066;-70
2021/01/20 06:34:24;;;;;;;100.00;49.47;;;;;;;-2.81;64.95;95308.16;4115592;28;20056;-71
2021/01/20 06:36:31;;;;;;;43.92;21.98;;;;;;;-2.82;64.12;95324.44;4140230;28;20486;-72
2021/01/20 06:38:37;;;;;;;24.02;14.43;;;;;;;-2.76;64.28;95331.88;4117191;28;20054;-70
2021/01/20 06:40:38;;;;;;;25.25;13.18;;;;;;;-2.81;63.68;95333.81;4135689;28;20112;-71
2021/01/20 06:42:40;;;;;;;20.63;12.40;;;;;;;-2.89;64.36;95321.28;4128158;28;20590;-72
2021/01/20 06:45:13;;;;;;;22.73;12.63;;;;;;;-2.91;64.33;95330.75;4128781;28;20097;-70
2021/01/20 06:47:15;;;;;;;22.02;12.63;;;;;;;-2.82;64.56;95342.38;4128804;28;20051;-72
2021/01/20 06:49:16;;;;;;;22.75;12.10;;;;;;;-2.78;64.21;95341.34;4131454;28;20145;-70
2021/01/20 06:51:17;;;;;;;21.15;13.05;;;;;;;-3.02;64.21;95336.31;4148153;28;20090;-72
2021/01/20 06:53:19;;;;;;;22.73;13.55;;;;;;;-2.86;64.12;95330.56;4140353;28;20061;-71
2021/01/20 06:55:39;;;;;;;26.35;14.70;;;;;;;-2.68;63.79;95335.78;4120268;28;20062;-70
2021/01/20 06:57:41;;;;;;;28.20;14.00;;;;;;;-2.48;63.46;95342.63;4128534;28;20065;-71
2021/01/20 06:59:43;;;;;;;27.27;13.77;;;;;;;-2.60;63.77;95342.31;4119980;28;20042;-71
2021/01/20 07:02:03;;;;;;;22.20;13.20;;;;;;;-2.51;62.79;95335.09;4128561;28;20576;-73
2021/01/20 07:04:04;;;;;;;25.58;13.38;;;;;;;-2.43;63.05;95336.47;4143916;28;20049;-71
2021/01/20 07:06:44;;;;;;;22.40;13.98;;;;;;;-2.34;62.71;95338.69;4128328;28;20057;-71
2021/01/20 07:08:55;;;;;;;23.92;14.52;;;;;;;-2.20;61.90;95356.03;4148583;28;20109;-83
2021/01/20 07:11:01;;;;;;;26.00;14.45;;;;;;;-2.17;61.78;95369.59;4137039;28;20110;-81
2021/01/20 07:13:14;;;;;;;22.38;13.80;;;;;;;-2.02;61.60;95369.81;4125023;28;20487;-83
2021/01/20 07:15:18;;;;;;;28.45;14.52;;;;;;;-1.93;61.38;95375.38;4146008;28;20092;-82
2021/01/20 07:17:21;;;;;;;20.15;13.20;;;;;;;-1.76;60.36;95376.41;4126645;28;20137;-82
2021/01/20 07:19:23;;;;;;;28.07;15.17;;;;;;;-1.66;60.14;95378.47;4131028;28;20129;-81
2021/01/20 07:21:24;;;;;;;28.20;15.20;;;;;;;-1.62;60.02;95389.44;4134969;28;20061;-84
2021/01/20 07:23:25;;;;;;;28.23;15.32;;;;;;;-1.60;60.48;95376.53;4145982;28;20046;-83
2021/01/20 07:25:27;;;;;;;25.48;15.00;;;;;;;-1.55;61.00;95374.56;4140463;28;20110;-83
2021/01/20 07:27:28;;;;;;;37.65;20.05;;;;;;;-1.54;61.29;95360.84;4140659;28;20065;-82
2021/01/20 07:29:32;;;;;;;25.13;15.40;;;;;;;-1.61;60.18;95385.13;4139935;28;20324;-84
2021/01/20 07:31:33;;;;;;;24.10;14.93;;;;;;;-1.60;60.55;95368.81;4138280;28;20054;-83
2021/01/20 07:33:35;;;;;;;24.90;15.30;;;;;;;-1.77;61.33;95390.13;4120758;28;20054;-83
2021/01/20 07:35:36;;;;;;;26.70;15.55;;;;;;;-1.64;61.05;95378.38;4137920;28;20054;-83
2021/01/20 07:37:37;;;;;;;34.15;16.30;;;;;;;-1.62;60.50;95378.34;4139677;28;20058;-82
2021/01/20 07:39:39;;;;;;;28.38;14.55;;;;;;;-1.57;60.53;95395.22;4136966;28;20050;-83
2021/01/20 07:41:41;;;;;;;25.08;14.32;;;;;;;-1.56;60.23;95390.91;4140957;28;20046;-82
2021/01/20 07:43:42;;;;;;;25.63;15.07;;;;;;;-1.46;59.95;95390.44;4141272;28;20057;-81
2021/01/20 07:45:43;;;;;;;32.67;16.15;;;;;;;-1.42;60.04;95410.84;4140991;28;20054;-83
2021/01/20 07:47:47;;;;;;;73.82;39.63;;;;;;;-1.58;61.65;95393.53;4141384;28;20479;-81
2021/01/20 07:49:53;;;;;;;26.17;15.48;;;;;;;-1.45;60.05;95394.66;4135774;28;20053;-84
2021/01/20 07:52:07;;;;;;;24.13;14.13;;;;;;;-1.48;59.77;95392.22;4124072;28;20054;-82
2021/01/20 07:54:09;;;;;;;;;;;;;;;-1.58;59.82;95395.28;4138765;28;20081;-83
2021/01/20 07:56:10;;;;;;;35.50;14.60;;;;;;;-1.51;60.15;95394.91;4138332;28;19922;-82
2021/01/20 07:58:12;;;;;;;28.08;14.25;;;;;;;-1.34;59.39;95391.59;4137728;28;20038;-84
2021/01/20 08:00:14;;;;;;;24.23;14.02;;;;;;;-1.13;59.17;95400.06;4139852;28;20058;-82
2021/01/20 08:02:16;;;;;;;34.08;15.13;;;;;;;-0.96;59.05;95399.28;4139876;28;20080;-83
2021/01/20 08:04:21;;;;;;;33.65;14.88;;;;;;;-0.84;57.80;95378.13;4139280;28;20116;-85
2021/01/20 08:06:23;;;;;;;29.00;14.43;;;;;;;-0.78;57.98;95397.56;4135186;28;20093;-85
2021/01/20 08:08:25;;;;;;;33.20;14.30;;;;;;;-0.79;57.82;95389.94;4125830;28;20046;-80
2021/01/20 08:10:26;;;;;;;27.67;15.10;;;;;;;-0.81;57.93;95397.72;4135697;28;20463;-81
2021/01/20 08:12:30;;;;;;;26.05;14.07;;;;;;;-0.70;58.06;95394.63;4136993;28;20057;-82
2021/01/20 08:14:33;;;;;;;22.73;13.80;;;;;;;-0.67;57.85;95390.19;4135504;28;20072;-82
2021/01/20 08:16:34;;;;;;;24.98;14.57;;;;;;;-0.54;57.34;95392.97;4135841;28;20537;-82
2021/01/20 08:18:36;;;;;;;28.52;14.32;;;;;;;-0.49;57.01;95385.03;4121153;28;20059;-81
2021/01/20 08:20:37;;;;;;;23.38;13.43;;;;;;;-0.50;57.54;95373.88;4139057;28;20129;-83
2021/01/20 08:22:45;;;;;;;28.63;14.27;;;;;;;-0.29;56.88;95390.03;4139193;28;20088;-83
2021/01/20 08:24:55;;;;;;;25.35;14.63;;;;;;;-0.12;56.67;95386.59;4124643;28;20133;-83
2021/01/20 08:26:57;;;;;;;25.20;13.80;;;;;;;-0.01;56.50;95383.47;4150674;28;20519;-82
2021/01/20 08:29:06;;;;;;;25.98;13.75;;;;;;;0.06;55.76;95368.53;4137007;28;20085;-72
2021/01/20 08:31:20;;;;;;;30.30;14.65;;;;;;;0.19;55.54;95390.19;4129733;28;20058;-72
2021/01/20 08:33:22;;;;;;;25.48;14.05;;;;;;;0.23;54.59;95383.97;4124158;28;20478;-71
2021/01/20 08:35:31;;;;;;;28.27;13.88;;;;;;;0.15;54.79;95383.53;4130202;28;20066;-72
2021/01/20 08:37:37;;;;;;;24.40;13.38;;;;;;;0.29;55.04;95381.06;4127632;28;20046;-73
2021/01/20 08:39:57;;;;;;;27.08;13.85;;;;;;;0.47;54.57;95378.44;4138408;28;20073;-82
2021/01/20 08:42:17;;;;;;;24.83;13.55;;;;;;;0.63;53.87;95378.47;4141164;28;20054;-83
2021/01/20 08:44:18;;;;;;;28.63;15.32;;;;;;;0.72;53.27;95383.13;4141845;28;20046;-83
2021/01/20 08:46:26;;;;;;;193.38;97.15;;;;;;;0.83;56.02;95375.63;4142018;28;20057;-83
2021/01/20 08:48:30;;;;;;;37.97;17.60;;;;;;;0.98;53.23;95385.09;4116116;28;20047;-72
2021/01/20 08:50:34;;;;;;;32.53;16.80;;;;;;;0.56;53.41;95383.94;4111924;28;20142;-73
2021/01/20 08:52:42;;;;;;;31.63;15.30;;;;;;;0.53;53.77;95383.28;4126359;28;20100;-71
2021/01/20 08:54:53;;;;;;;34.55;15.55;;;;;;;0.66;53.43;95379.13;4124852;28;20056;-70
2021/01/20 08:57:14;;;;;;;24.83;14.32;;;;;;;0.80;53.49;95392.13;4128823;28;20093;-72
2021/01/20 08:59:15;;;;;;;31.20;15.02;;;;;;;0.85;53.17;95385.88;4117068;28;20706;-70
2021/01/20 09:01:16;;;;;;;30.75;16.30;;;;;;;1.02;52.96;95388.38;4110568;28;20062;-71
2021/01/20 09:03:25;;;;;;;32.85;16.13;;;;;;;1.00;52.66;95382.47;4129135;28;20597;-72
2021/01/20 09:05:33;;;;;;;32.25;15.63;;;;;;;1.03;51.60;95402.91;4127189;28;20137;-73
2021/01/20 09:07:34;;;;;;;24.70;15.70;;;;;;;1.15;52.71;95373.84;4129161;28;20185;-71
2021/01/20 09:09:35;;;;;;;28.42;16.55;;;;;;;1.17;52.14;95389.28;4128644;28;20061;-73
2021/01/20 09:11:39;;;;;;;29.70;16.65;;;;;;;1.16;51.98;95395.34;4128748;28;20439;-71
2021/01/20 09:13:41;;;;;;;26.35;15.45;;;;;;;1.27;52.06;95379.25;4122708;28;20047;-83
2021/01/20 09:15:43;;;;;;;33.42;18.38;;;;;;;1.50;53.10;95391.69;4128839;28;20483;-83
2021/01/20 09:17:44;;;;;;;29.98;16.77;;;;;;;1.79;52.67;95384.06;4134697;28;20054;-84
2021/01/20 09:19:46;;;;;;;37.40;21.50;;;;;;;1.82;51.01;95389.03;4132515;28;20130;-83
2021/01/20 09:21:47;;;;;;;34.35;21.02;;;;;;;1.91;50.77;95372.97;4121494;28;20054;-81
2021/01/20 09:23:49;;;;;;;39.55;23.10;;;;;;;2.12;50.21;95385.56;4123667;28;20054;-84
2021/01/20 09:25:50;;;;;;;40.50;22.15;;;;;;;1.73;50.48;95371.47;4141304;28;20060;-83
2021/01/20 09:27:52;;;;;;;37.72;21.77;;;;;;;1.91;50.94;95374.72;4135747;28;20058;-83
2021/01/20 09:29:53;;;;;;;36.83;21.10;;;;;;;2.18;49.83;95367.94;4134462;28;20440;-83